Terminal Aerodrome Forecast
Issued by NWS Lake Charles, LA

Home | Current Version | Previous Version | Text Only | Print | Product List | Glossary On
Versions: 1 2 3 4 5 6 7 8 9 10 11 12 13 14 15 16
000
FTUS44 KLCH 032341
TAFLCH
TAF
KLCH 032341Z 0400/0424 18007KT P6SM FEW040 SCT250
     FM040100 18005KT P6SM SCT050 BKN230
     FM040800 18003KT P6SM SCT025 BKN035 OVC230
     FM041200 19005KT P6SM BKN020 BKN030 BKN220
     FM041600 22006KT P6SM VCSH SCT024 BKN050 BKN220
     FM042200 19005KT 6SM -RA VCTS BKN023CB BKN045 OVC220=

USA.gov is the U.S. government's official web portal to all federal, state and local government web resources and services.